Time;durP1;ratioP1;P1;durP2;ratioP2;P2;SDS_P1;SDS_P2;PMS_P1;PMS_P2;Temp;Humidity;BMP_temperature;BMP_pressure;BME280_temperature;BME280_humidity;BME280_pressure;Samples;Min_cycle;Max_cycle;Signal;HPM_P1;HPM_P2
2023/05/08 03:01:15;;;;;;;41.10;38.60;;;14.20;99.90;;;;;;5651759;23;20328;-75
2023/05/08 03:03:44;;;;;;;38.70;36.53;;;14.20;99.90;;;;;;4975703;28;20192;-75
2023/05/08 03:06:18;;;;;;;42.17;39.77;;;14.10;99.90;;;;;;4975620;28;20188;-76
2023/05/08 03:08:45;;;;;;;44.60;42.13;;;14.20;99.90;;;;;;4972723;28;20625;-75
2023/05/08 03:11:16;;;;;;;29.37;27.63;;;14.20;99.90;;;;;;4988126;28;20247;-74
2023/05/08 03:13:45;;;;;;;22.20;20.87;;;14.10;99.90;;;;;;4973932;28;20263;-72
2023/05/08 03:16:17;;;;;;;17.30;16.17;;;14.20;99.90;;;;;;4973049;28;20196;-72
2023/05/08 03:19:04;;;;;;;15.23;14.20;;;14.10;99.90;;;;;;4974389;28;20181;-73
2023/05/08 03:21:31;;;;;;;14.70;13.70;;;14.10;99.90;;;;;;4956234;28;20205;-72
2023/05/08 03:23:59;;;;;;;15.17;13.80;;;14.10;99.90;;;;;;4954960;28;20205;-72
2023/05/08 03:26:26;;;;;;;17.73;16.43;;;14.10;99.90;;;;;;4954899;28;20186;-72
2023/05/08 03:28:53;;;;;;;26.13;24.40;;;14.10;99.90;;;;;;4954792;28;20245;-72
2023/05/08 03:31:21;;;;;;;26.67;24.73;;;14.20;99.90;;;;;;4968666;28;20292;-72
2023/05/08 03:33:49;;;;;;;31.87;29.63;;;14.10;99.90;;;;;;4974019;28;20201;-73
2023/05/08 03:36:16;;;;;;;29.80;28.07;;;14.10;99.90;;;;;;4964712;28;20213;-73
2023/05/08 03:38:42;;;;;;;29.47;27.53;;;14.20;99.90;;;;;;4960783;28;20552;-73
2023/05/08 03:41:08;;;;;;;29.60;27.57;;;14.20;99.90;;;;;;4973423;28;20197;-73
2023/05/08 03:43:36;;;;;;;33.53;31.47;;;14.10;99.90;;;;;;4973427;28;20527;-72
2023/05/08 03:46:04;;;;;;;28.47;26.50;;;14.20;99.90;;;;;;4957373;28;20213;-72
2023/05/08 03:48:33;;;;;;;21.97;20.47;;;14.20;99.90;;;;;;4957685;28;20184;-73
2023/05/08 03:51:01;;;;;;;44.63;42.13;;;14.20;99.90;;;;;;4967630;28;20205;-73
2023/05/08 03:53:29;;;;;;;69.43;65.53;;;14.20;99.90;;;;;;4955505;28;20532;-72
2023/05/08 03:55:57;;;;;;;48.47;45.57;;;14.20;99.90;;;;;;4953696;28;20190;-73
2023/05/08 03:58:35;;;;;;;50.50;47.47;;;14.20;99.90;;;;;;4952352;29;20182;-73
2023/05/08 04:01:23;;;;;;;63.37;59.83;;;14.20;99.90;;;;;;4952577;28;20275;-73
2023/05/08 04:04:03;;;;;;;72.33;67.87;;;14.30;99.90;;;;;;4953688;28;20210;-73
2023/05/08 04:06:35;;;;;;;59.90;56.47;;;14.30;99.90;;;;;;4954007;28;20245;-73
2023/05/08 04:09:25;;;;;;;57.97;54.43;;;14.30;99.90;;;;;;4959312;28;20260;-72
2023/05/08 04:12:02;;;;;;;65.90;62.13;;;14.30;99.90;;;;;;4951410;28;20932;-73
2023/05/08 04:14:36;;;;;;;79.83;75.40;;;14.30;99.90;;;;;;4953930;28;20193;-74
2023/05/08 04:17:06;;;;;;;53.10;50.00;;;14.30;99.90;;;;;;4953127;28;20189;-73
2023/05/08 04:19:37;;;;;;;73.23;69.20;;;14.30;99.90;;;;;;4951945;28;20257;-73
2023/05/08 04:22:07;;;;;;;133.83;125.90;;;14.30;99.90;;;;;;4954000;28;20257;-73
2023/05/08 04:24:36;;;;;;;138.73;131.07;;;14.30;99.90;;;;;;4953964;28;20300;-73
2023/05/08 04:27:03;;;;;;;126.57;119.63;;;14.30;99.90;;;;;;4955867;28;20192;-73
2023/05/08 04:29:29;;;;;;;117.97;111.43;;;14.30;99.90;;;;;;4954346;28;20576;-74
2023/05/08 04:31:56;;;;;;;126.73;119.70;;;14.30;99.90;;;;;;4960725;28;20193;-72
2023/05/08 04:34:22;;;;;;;123.17;116.30;;;14.30;99.90;;;;;;4972724;28;20204;-74
2023/05/08 04:36:48;;;;;;;57.67;54.37;;;14.30;99.90;;;;;;4972170;28;20181;-73
2023/05/08 04:39:14;;;;;;;77.50;72.97;;;14.30;99.90;;;;;;4972894;28;20184;-73
2023/05/08 04:41:40;;;;;;;87.77;82.47;;;14.30;99.90;;;;;;4972885;28;20572;-74
2023/05/08 04:44:06;;;;;;;74.00;69.77;;;14.40;99.90;;;;;;4971869;28;20205;-73
2023/05/08 04:46:31;;;;;;;53.43;50.23;;;14.40;99.90;;;;;;4972356;28;20188;-73
2023/05/08 04:48:57;;;;;;;34.83;32.60;;;14.40;99.90;;;;;;4972246;28;20225;-74
2023/05/08 04:51:23;;;;;;;38.23;35.93;;;14.40;99.90;;;;;;4972686;28;20243;-74
2023/05/08 04:53:48;;;;;;;49.67;46.63;;;14.40;99.90;;;;;;4971757;28;20192;-74
2023/05/08 04:56:14;;;;;;;37.47;35.10;;;14.40;99.90;;;;;;4972512;28;20173;-73
2023/05/08 04:58:40;;;;;;;48.73;45.60;;;14.40;99.90;;;;;;4972349;28;20657;-73
2023/05/08 05:01:06;;;;;;;52.93;49.53;;;14.40;99.90;;;;;;4972528;28;20240;-73
2023/05/08 05:03:31;;;;;;;48.27;45.50;;;14.40;99.90;;;;;;4971276;28;20674;-72
2023/05/08 05:05:58;;;;;;;29.57;27.70;;;14.50;99.90;;;;;;4971462;28;20645;-73
2023/05/08 05:08:24;;;;;;;34.70;32.67;;;14.50;99.90;;;;;;4972130;28;20196;-73
2023/05/08 05:10:50;;;;;;;39.63;37.03;;;14.50;99.90;;;;;;4972947;28;20201;-73
2023/05/08 05:13:16;;;;;;;47.80;44.83;;;14.50;99.90;;;;;;4972872;28;20741;-72
2023/05/08 05:15:42;;;;;;;51.83;48.60;;;14.50;99.90;;;;;;4972497;28;20238;-72
2023/05/08 05:18:08;;;;;;;54.33;51.13;;;14.50;99.90;;;;;;4970843;28;20235;-73
2023/05/08 05:20:34;;;;;;;61.90;58.20;;;14.50;99.90;;;;;;4972319;28;20252;-73
2023/05/08 05:23:00;;;;;;;76.60;72.10;;;14.60;99.90;;;;;;4971660;28;20614;-73
2023/05/08 05:25:26;;;;;;;69.00;64.83;;;14.60;99.90;;;;;;4973680;28;20209;-75
2023/05/08 05:27:51;;;;;;;115.30;108.83;;;14.60;99.90;;;;;;4972948;28;20209;-74
2023/05/08 05:30:17;;;;;;;90.23;84.87;;;14.70;99.90;;;;;;4974454;28;20185;-74
2023/05/08 05:32:43;;;;;;;111.50;105.33;;;14.70;99.90;;;;;;4972885;28;20189;-74
2023/05/08 05:35:09;;;;;;;100.83;95.23;;;14.70;99.90;;;;;;4971203;28;20241;-73
2023/05/08 05:37:36;;;;;;;82.67;77.73;;;14.70;99.90;;;;;;4970600;28;20292;-74
2023/05/08 05:40:02;;;;;;;105.13;99.00;;;14.70;99.90;;;;;;4970070;28;20185;-73
2023/05/08 05:42:28;;;;;;;128.67;121.37;;;14.80;99.90;;;;;;4971323;28;20201;-74
2023/05/08 05:44:55;;;;;;;99.57;94.07;;;14.80;99.90;;;;;;4972171;28;20547;-73
2023/05/08 05:47:21;;;;;;;106.13;100.20;;;14.90;99.90;;;;;;4964365;28;20676;-73
2023/05/08 05:49:47;;;;;;;27.77;25.57;;;14.90;99.90;;;;;;4955211;28;20209;-73
2023/05/08 05:52:13;;;;;;;24.93;22.73;;;15.00;99.90;;;;;;4952518;29;20232;-73
2023/05/08 05:54:40;;;;;;;33.73;31.53;;;15.00;99.90;;;;;;4968345;28;20185;-72
2023/05/08 05:57:06;;;;;;;25.20;23.27;;;15.00;99.90;;;;;;4971341;28;20276;-72
2023/05/08 05:59:32;;;;;;;34.10;31.80;;;15.10;99.90;;;;;;4971179;28;20185;-73
2023/05/08 06:01:58;;;;;;;46.37;43.53;;;15.10;99.90;;;;;;4971383;28;20759;-73
2023/05/08 06:04:25;;;;;;;39.10;36.57;;;15.00;99.90;;;;;;4971815;28;20352;-72
2023/05/08 06:06:51;;;;;;;46.83;43.97;;;15.10;99.90;;;;;;4971539;28;20239;-72
2023/05/08 06:09:16;;;;;;;32.20;29.57;;;15.10;99.90;;;;;;4971721;28;20679;-73
2023/05/08 06:11:42;;;;;;;25.93;24.03;;;15.20;99.90;;;;;;4965837;28;20216;-71
2023/05/08 06:14:08;;;;;;;22.77;21.17;;;15.30;99.90;;;;;;4951445;28;20658;-73
2023/05/08 06:16:34;;;;;;;56.67;53.07;;;15.40;99.90;;;;;;4952777;28;20197;-72
2023/05/08 06:19:00;;;;;;;50.17;47.13;;;15.30;99.90;;;;;;4955870;28;20182;-73
2023/05/08 06:21:27;;;;;;;47.50;44.57;;;15.30;99.90;;;;;;4952497;29;20228;-73
2023/05/08 06:23:53;;;;;;;21.37;19.57;;;15.30;99.90;;;;;;4964908;28;20256;-73
2023/05/08 06:26:20;;;;;;;31.23;29.13;;;15.20;99.90;;;;;;4971574;28;20188;-73
2023/05/08 06:28:45;;;;;;;39.13;36.67;;;15.20;99.90;;;;;;4971042;28;20272;-72
2023/05/08 06:31:11;;;;;;;27.57;25.37;;;15.20;99.90;;;;;;4971220;28;20287;-73
2023/05/08 06:33:37;;;;;;;32.70;30.23;;;15.30;99.90;;;;;;4971574;28;20262;-73
2023/05/08 06:36:05;;;;;;;35.83;33.37;;;15.30;99.90;;;;;;4971307;28;20657;-73
2023/05/08 06:38:31;;;;;;;44.80;42.00;;;15.40;99.90;;;;;;4969645;28;20185;-73
2023/05/08 06:40:57;;;;;;;38.27;35.60;;;15.40;99.90;;;;;;4971499;28;20227;-73
2023/05/08 06:43:23;;;;;;;29.00;26.53;;;15.40;99.90;;;;;;4970030;28;20185;-73
2023/05/08 06:45:48;;;;;;;40.07;37.13;;;15.50;99.90;;;;;;4949534;28;20301;-73
2023/05/08 06:48:14;;;;;;;57.40;53.67;;;15.50;99.90;;;;;;4950592;29;20216;-73
2023/05/08 06:50:41;;;;;;;39.30;36.90;;;15.60;99.90;;;;;;4955838;28;20206;-73
2023/05/08 06:53:07;;;;;;;20.77;19.13;;;15.60;99.90;;;;;;4951122;29;20177;-72
2023/05/08 06:55:33;;;;;;;16.20;14.70;;;15.60;99.90;;;;;;4969429;28;20661;-71
2023/05/08 06:57:59;;;;;;;17.33;15.87;;;15.50;99.90;;;;;;4963277;28;20194;-72
2023/05/08 07:00:25;;;;;;;13.73;12.43;;;15.60;99.90;;;;;;4954912;28;20194;-73
2023/05/08 07:02:51;;;;;;;16.10;14.60;;;15.60;99.90;;;;;;4951785;28;20189;-73
2023/05/08 07:05:16;;;;;;;14.60;13.30;;;15.70;99.90;;;;;;4962563;28;20271;-73
2023/05/08 07:07:42;;;;;;;14.17;12.87;;;15.70;99.90;;;;;;4971111;28;20193;-73
2023/05/08 07:10:09;;;;;;;15.43;13.87;;;15.80;99.90;;;;;;4973259;28;20185;-73
2023/05/08 07:12:34;;;;;;;19.40;17.60;;;15.90;99.90;;;;;;4974533;28;20217;-72
2023/05/08 07:15:00;;;;;;;21.70;19.73;;;15.90;99.90;;;;;;4973618;28;20204;-73
2023/05/08 07:17:26;;;;;;;22.53;20.80;;;15.90;99.90;;;;;;4972714;28;20308;-73
2023/05/08 07:19:52;;;;;;;22.67;20.77;;;15.90;99.90;;;;;;4972310;28;20218;-73
2023/05/08 07:22:18;;;;;;;33.57;31.23;;;16.00;99.90;;;;;;4973261;28;20196;-73
2023/05/08 07:24:44;;;;;;;21.27;19.47;;;15.90;99.90;;;;;;4972738;28;20209;-73
2023/05/08 07:27:09;;;;;;;20.50;18.60;;;15.90;99.90;;;;;;4972291;28;20211;-73
2023/05/08 07:29:35;;;;;;;17.20;15.63;;;16.00;99.90;;;;;;4974845;28;20185;-74
2023/05/08 07:32:01;;;;;;;20.80;19.00;;;16.30;99.90;;;;;;4974741;28;20203;-73
2023/05/08 07:34:27;;;;;;;25.60;23.13;;;16.40;99.90;;;;;;4974855;28;20704;-73
2023/05/08 07:36:53;;;;;;;21.93;20.23;;;16.60;99.90;;;;;;4974690;28;20180;-74
2023/05/08 07:39:19;;;;;;;48.17;45.07;;;16.60;99.90;;;;;;4973351;28;20208;-74
2023/05/08 07:41:45;;;;;;;61.13;57.53;;;16.60;99.90;;;;;;4974402;28;20295;-74
2023/05/08 07:44:11;;;;;;;25.13;23.03;;;16.70;99.90;;;;;;4974461;28;20219;-74
2023/05/08 07:46:36;;;;;;;15.60;14.03;;;16.70;99.90;;;;;;4973412;28;20177;-73
2023/05/08 07:49:03;;;;;;;14.17;12.77;;;16.70;99.90;;;;;;4974153;28;20200;-74
2023/05/08 07:51:28;;;;;;;17.70;15.93;;;16.70;99.90;;;;;;4973205;28;20236;-74
2023/05/08 07:53:54;;;;;;;17.40;15.97;;;16.70;99.90;;;;;;4974343;28;20651;-74
2023/05/08 07:56:21;;;;;;;35.43;32.77;;;16.80;99.90;;;;;;4974255;28;20184;-74
2023/05/08 07:58:47;;;;;;;17.07;15.67;;;17.00;99.90;;;;;;4973170;28;20181;-73
2023/05/08 08:01:15;;;;;;;20.43;18.70;;;17.10;99.90;;;;;;4973538;28;20279;-73
2023/05/08 08:03:43;;;;;;;17.47;15.60;;;17.20;99.90;;;;;;4975076;28;20181;-73
2023/05/08 08:06:09;;;;;;;19.03;17.23;;;17.20;99.90;;;;;;4973526;28;20265;-74
2023/05/08 08:08:35;;;;;;;17.20;15.60;;;17.30;99.90;;;;;;4974787;28;20769;-74
2023/05/08 08:11:01;;;;;;;35.97;33.47;;;17.50;99.90;;;;;;4975421;28;20201;-74
2023/05/08 08:13:26;;;;;;;34.27;32.07;;;17.50;99.90;;;;;;4974279;28;20276;-74
2023/05/08 08:15:52;;;;;;;60.23;56.53;;;17.50;99.90;;;;;;4974412;28;20181;-74
2023/05/08 08:18:18;;;;;;;41.50;38.87;;;17.70;99.90;;;;;;4973298;28;20209;-74
2023/05/08 08:20:44;;;;;;;20.77;19.23;;;17.90;99.90;;;;;;4970673;28;20251;-74
2023/05/08 08:23:09;;;;;;;14.97;13.63;;;18.00;99.90;;;;;;4968773;28;20662;-74
2023/05/08 08:25:35;;;;;;;14.57;12.97;;;18.00;99.90;;;;;;4957007;29;20217;-75
2023/05/08 08:28:01;;;;;;;15.53;14.07;;;18.10;99.90;;;;;;4973844;28;20239;-73
2023/05/08 08:30:26;;;;;;;15.07;13.70;;;18.00;99.90;;;;;;4974277;28;20600;-73
2023/05/08 08:32:52;;;;;;;35.97;33.67;;;18.30;99.90;;;;;;4973815;28;20188;-73
2023/05/08 08:35:18;;;;;;;82.83;78.20;;;18.50;99.90;;;;;;4973786;28;20193;-73
2023/05/08 08:37:44;;;;;;;49.03;45.93;;;18.70;99.90;;;;;;4973182;28;20185;-73
2023/05/08 08:40:10;;;;;;;37.83;35.23;;;18.80;99.90;;;;;;4972209;28;20176;-74
2023/05/08 08:42:36;;;;;;;25.80;24.03;;;19.10;99.90;;;;;;4973395;28;20284;-73
2023/05/08 08:45:02;;;;;;;15.43;14.03;;;19.30;99.90;;;;;;4973395;28;20335;-73
2023/05/08 08:47:35;;;;;;;13.77;12.18;;;19.40;99.90;;;;;;4973024;28;20641;-73
2023/05/08 08:50:02;;;;;;;15.97;14.57;;;19.20;99.90;;;;;;4973151;28;20705;-74
2023/05/08 08:52:44;;;;;;;15.13;13.60;;;19.20;99.90;;;;;;4971989;28;20201;-74
2023/05/08 08:55:16;;;;;;;14.20;12.82;;;19.40;99.90;;;;;;4972718;28;20181;-73
2023/05/08 08:57:59;;;;;;;15.57;14.15;;;19.60;99.90;;;;;;4971778;28;20231;-73
2023/05/08 09:00:30;;;;;;;15.90;14.40;;;19.80;99.90;;;;;;4973059;28;20264;-74
2023/05/08 09:02:56;;;;;;;19.40;17.70;;;19.90;99.90;;;;;;4972930;28;20189;-74
2023/05/08 09:05:25;;;;;;;19.38;17.80;;;19.80;99.90;;;;;;4972774;28;20217;-73
2023/05/08 09:07:54;;;;;;;23.40;21.55;;;19.90;99.90;;;;;;4972715;28;20701;-74
2023/05/08 09:10:22;;;;;;;23.75;21.95;;;20.10;99.90;;;;;;4972857;28;20214;-73
2023/05/08 09:12:48;;;;;;;23.80;21.98;;;20.10;99.90;;;;;;4972609;28;20189;-73
2023/05/08 09:15:14;;;;;;;21.67;19.98;;;20.20;99.90;;;;;;5013095;23;20232;-72
2023/05/08 09:17:40;;;;;;;21.17;19.67;;;20.30;99.90;;;;;;4991341;28;20188;-72
2023/05/08 09:20:07;;;;;;;13.98;12.73;;;20.30;99.90;;;;;;4990741;28;20570;-72
2023/05/08 09:22:35;;;;;;;15.38;13.77;;;20.00;99.90;;;;;;4990919;28;20195;-72
2023/05/08 09:25:02;;;;;;;16.25;14.25;;;19.70;99.90;;;;;;4992018;28;20231;-72
2023/05/08 09:27:30;;;;;;;15.30;13.77;;;19.80;99.90;;;;;;4991352;28;20230;-72
2023/05/08 09:30:10;;;;;;;14.52;13.13;;;19.70;99.90;;;;;;4991959;28;20180;-72
2023/05/08 09:32:38;;;;;;;17.23;15.65;;;19.70;99.90;;;;;;4991952;28;20208;-72
2023/05/08 09:35:06;;;;;;;17.55;16.05;;;19.80;99.90;;;;;;4990795;28;20204;-72
2023/05/08 09:37:32;;;;;;;16.02;14.52;;;20.00;99.90;;;;;;5012319;28;20192;-72
2023/05/08 09:40:24;;;;;;;14.30;13.00;;;20.20;99.90;;;;;;4990858;28;20188;-72
2023/05/08 09:42:50;;;;;;;13.75;12.35;;;20.20;99.90;;;;;;4988205;28;20188;-72
2023/05/08 09:45:34;;;;;;;13.98;12.57;;;20.50;99.90;;;;;;4990439;28;20267;-72
2023/05/08 09:48:00;;;;;;;20.80;19.02;;;20.70;99.90;;;;;;4991317;28;20271;-72
2023/05/08 09:50:26;;;;;;;22.90;20.90;;;20.60;99.90;;;;;;4991400;28;20293;-72
2023/05/08 09:52:52;;;;;;;23.15;21.48;;;20.60;99.90;;;;;;4990287;28;20212;-72
2023/05/08 09:55:18;;;;;;;49.47;46.47;;;20.60;99.90;;;;;;4991564;28;20297;-72
2023/05/08 09:57:57;;;;;;;72.88;68.85;;;20.90;99.90;;;;;;4989787;28;20632;-72
2023/05/08 10:00:25;;;;;;;81.72;77.07;;;21.00;99.90;;;;;;4990412;28;20675;-72
2023/05/08 10:02:59;;;;;;;67.38;63.45;;;21.00;99.90;;;;;;4991335;28;20192;-72
2023/05/08 10:05:34;;;;;;;90.80;85.93;;;21.10;99.90;;;;;;4989901;28;20212;-72
2023/05/08 10:08:22;;;;;;;80.35;76.10;;;21.10;99.90;;;;;;4990974;28;20179;-73
2023/05/08 10:10:48;;;;;;;48.50;45.40;;;21.30;99.90;;;;;;4991625;28;20534;-72
2023/05/08 10:13:14;;;;;;;27.52;25.63;;;21.50;99.90;;;;;;5004026;28;20248;-73
2023/05/08 10:15:42;;;;;;;26.20;24.05;;;21.30;99.90;;;;;;4993591;28;20231;-72
2023/05/08 10:18:10;;;;;;;24.27;22.30;;;21.30;99.90;;;;;;4989806;28;20176;-72
2023/05/08 10:20:44;;;;;;;21.65;19.95;;;21.10;99.90;;;;;;4991106;28;20301;-72
2023/05/08 10:23:14;;;;;;;25.85;24.10;;;21.00;99.90;;;;;;4991280;28;20660;-72
2023/05/08 10:25:46;;;;;;;19.73;18.27;;;21.00;99.90;;;;;;4991100;28;20259;-72
2023/05/08 10:28:54;;;;;;;29.33;27.20;;;21.00;99.90;;;;;;4989586;28;20188;-72
2023/05/08 10:31:23;;;;;;;59.83;56.53;;;20.70;99.90;;;;;;4991661;28;20581;-72
2023/05/08 10:33:53;;;;;;;96.80;91.78;;;20.50;99.90;;;;;;4977616;28;20209;-71
2023/05/08 10:36:20;;;;;;;86.40;81.60;;;20.30;99.90;;;;;;4970298;28;20181;-72
2023/05/08 10:38:48;;;;;;;65.85;62.22;;;20.10;99.90;;;;;;4971103;28;20185;-72
2023/05/08 10:41:14;;;;;;;83.57;79.15;;;20.40;99.90;;;;;;4971727;28;20181;-72
2023/05/08 10:43:43;;;;;;;112.05;106.28;;;20.70;99.90;;;;;;4969720;28;20256;-73
2023/05/08 10:46:33;;;;;;;100.45;94.85;;;20.90;99.90;;;;;;4975620;28;20236;-72
2023/05/08 10:49:25;;;;;;;88.07;83.43;;;21.00;99.90;;;;;;4960380;28;20224;-72
2023/05/08 10:51:57;;;;;;;22.77;21.20;;;21.10;99.90;;;;;;4969145;28;20612;-72
2023/05/08 10:55:03;;;;;;;22.52;20.98;;;21.20;99.90;;;;;;4975647;28;20606;-72
2023/05/08 10:57:29;;;;;;;16.42;15.27;;;21.00;99.90;;;;;;4973905;28;20185;-72
2023/05/08 10:59:55;;;;;;;16.83;15.43;;;20.80;99.90;;;;;;4975352;28;20295;-72
2023/05/08 11:02:28;;;;;;;19.58;18.27;;;20.90;99.90;;;;;;4975406;28;20216;-72
2023/05/08 11:05:15;;;;;;;29.30;27.33;;;20.80;99.90;;;;;;4975162;28;20217;-72
2023/05/08 11:07:57;;;;;;;20.98;19.45;;;21.00;99.90;;;;;;4975180;28;20179;-71
2023/05/08 11:10:35;;;;;;;20.00;18.65;;;20.90;99.90;;;;;;4974251;28;20527;-72
2023/05/08 11:13:03;;;;;;;21.90;20.50;;;20.70;99.90;;;;;;4975401;28;20210;-72
2023/05/08 11:15:37;;;;;;;22.60;21.00;;;20.70;99.90;;;;;;4974078;28;20181;-71
2023/05/08 11:18:12;;;;;;;71.25;67.53;;;20.60;99.90;;;;;;4977432;28;20271;-72
2023/05/08 11:20:40;;;;;;;58.88;55.58;;;20.70;99.90;;;;;;4993211;28;20188;-72
2023/05/08 11:23:25;;;;;;;77.75;73.40;;;21.00;99.90;;;;;;4994150;28;20185;-71
2023/05/08 11:25:59;;;;;;;34.63;32.45;;;21.10;99.90;;;;;;5018043;28;20319;-71
2023/05/08 11:28:24;;;;;;;31.00;29.17;;;21.00;99.90;;;;;;4993987;28;20187;-72
2023/05/08 11:30:54;;;;;;;25.88;24.23;;;20.80;99.90;;;;;;4994360;28;20177;-72
2023/05/08 11:33:20;;;;;;;66.10;62.63;;;20.80;99.90;;;;;;4993963;28;20207;-72
2023/05/08 11:35:49;;;;;;;98.97;93.68;;;20.50;99.90;;;;;;4994192;28;20177;-72
2023/05/08 11:38:35;;;;;;;59.80;56.60;;;20.40;99.90;;;;;;4993573;28;20177;-71
2023/05/08 11:41:05;;;;;;;35.08;32.60;;;20.30;99.90;;;;;;4993667;28;20187;-71
2023/05/08 11:43:36;;;;;;;17.35;16.05;;;20.10;99.90;;;;;;4992674;28;20200;-72
2023/05/08 11:46:10;;;;;;;11.40;10.10;;;20.10;99.90;;;;;;4993884;28;20223;-72
2023/05/08 11:48:35;;;;;;;13.23;12.18;;;19.80;99.90;;;;;;4993281;28;20181;-71
2023/05/08 11:51:02;;;;;;;13.20;12.10;;;19.60;99.90;;;;;;4992795;28;20576;-72
2023/05/08 11:53:30;;;;;;;12.37;11.37;;;19.60;99.90;;;;;;4993501;28;20204;-72
2023/05/08 11:55:56;;;;;;;14.57;13.27;;;19.50;99.90;;;;;;4986422;28;20665;-72
2023/05/08 11:58:22;;;;;;;14.63;13.38;;;19.60;99.90;;;;;;4988229;28;20231;-72
2023/05/08 12:00:49;;;;;;;12.50;11.27;;;19.50;99.90;;;;;;5003683;28;20219;-72
2023/05/08 12:03:17;;;;;;;19.10;17.47;;;19.10;99.90;;;;;;5013531;28;20204;-72
2023/05/08 12:05:43;;;;;;;33.87;31.67;;;18.80;99.90;;;;;;5011100;28;20246;-72
2023/05/08 12:08:11;;;;;;;37.93;35.27;;;18.80;99.90;;;;;;5012585;28;20609;-72
2023/05/08 12:10:46;;;;;;;25.53;23.63;;;18.60;99.90;;;;;;5014214;28;20275;-72
2023/05/08 12:13:19;;;;;;;15.60;14.27;;;18.30;99.90;;;;;;5011989;28;20291;-72
2023/05/08 12:15:52;;;;;;;15.27;13.70;;;18.20;99.90;;;;;;5011810;28;20199;-72
2023/05/08 12:18:19;;;;;;;19.50;17.67;;;18.20;99.90;;;;;;5011550;28;20223;-72
2023/05/08 12:20:45;;;;;;;20.70;19.03;;;18.20;99.90;;;;;;5011750;28;20180;-72
2023/05/08 12:23:11;;;;;;;14.77;13.40;;;18.30;99.90;;;;;;5012902;28;20183;-72
2023/05/08 12:25:38;;;;;;;15.77;14.47;;;18.30;99.90;;;;;;5012733;28;20586;-72
2023/05/08 12:28:08;;;;;;;26.03;24.20;;;18.50;99.90;;;;;;5012409;28;20184;-72
2023/05/08 12:30:34;;;;;;;39.00;36.40;;;18.60;99.90;;;;;;5012793;28;20671;-72
2023/05/08 12:33:01;;;;;;;45.27;42.07;;;18.70;99.90;;;;;;5011469;28;20187;-72
2023/05/08 12:35:26;;;;;;;16.03;14.73;;;19.00;99.90;;;;;;5011296;28;20268;-72
2023/05/08 12:37:52;;;;;;;17.67;16.17;;;19.60;99.90;;;;;;5011029;28;20195;-71
2023/05/08 12:40:26;;;;;;;13.10;11.75;;;20.10;99.90;;;;;;5011218;28;20225;-72
2023/05/08 12:42:52;;;;;;;12.23;10.97;;;20.40;99.90;;;;;;5012430;28;20238;-72
2023/05/08 12:45:27;;;;;;;11.15;10.15;;;20.70;99.90;;;;;;5011078;28;20219;-72
2023/05/08 12:47:57;;;;;;;12.80;11.70;;;20.70;99.90;;;;;;5011945;28;20277;-72
2023/05/08 12:50:26;;;;;;;25.27;23.65;;;20.70;99.90;;;;;;5012445;28;20213;-72
2023/05/08 12:52:52;;;;;;;64.90;61.25;;;21.30;99.90;;;;;;5011237;28;20179;-71
2023/05/08 12:55:22;;;;;;;20.60;19.15;;;21.50;99.90;;;;;;5012244;28;20262;-72
2023/05/08 12:57:50;;;;;;;18.33;16.92;;;21.50;99.90;;;;;;5010581;28;20187;-72
2023/05/08 13:00:18;;;;;;;19.05;17.33;;;21.40;99.90;;;;;;5011703;28;20191;-71
2023/05/08 13:02:54;;;;;;;50.03;46.88;;;22.10;99.90;;;;;;4979626;28;20215;-71
2023/05/08 13:05:21;;;;;;;36.55;34.00;;;22.60;99.90;;;;;;4992297;28;20211;-71
2023/05/08 13:07:50;;;;;;;30.52;28.52;;;22.60;99.90;;;;;;4991802;28;20203;-72
2023/05/08 13:10:17;;;;;;;29.38;27.33;;;22.40;99.90;;;;;;4992186;28;20191;-71
2023/05/08 13:12:46;;;;;;;63.53;60.08;;;22.20;99.90;;;;;;5012251;28;20196;-71
2023/05/08 13:15:12;;;;;;;33.88;31.75;;;22.10;99.90;;;;;;4997460;28;20224;-71
2023/05/08 13:17:38;;;;;;;44.60;42.00;;;21.80;99.90;;;;;;4992217;28;20234;-71
2023/05/08 13:20:04;;;;;;;57.50;53.92;;;21.60;99.90;;;;;;4992258;28;20610;-71
2023/05/08 13:22:30;;;;;;;50.17;47.30;;;21.50;99.90;;;;;;4991930;28;20184;-72
2023/05/08 13:24:56;;;;;;;36.97;34.45;;;21.70;99.90;;;;;;4990736;28;20212;-72
2023/05/08 13:27:22;;;;;;;65.72;62.03;;;22.10;99.90;;;;;;4990515;28;20200;-72
2023/05/08 13:29:48;;;;;;;70.70;67.05;;;22.50;99.90;;;;;;4992083;28;20226;-72
2023/05/08 13:32:13;;;;;;;79.95;75.63;;;22.80;99.90;;;;;;4991851;28;20172;-72
2023/05/08 13:34:39;;;;;;;58.95;55.67;;;22.90;99.90;;;;;;4992352;28;20200;-72
2023/05/08 13:37:05;;;;;;;15.48;14.27;;;23.10;99.90;;;;;;4990630;28;20684;-72
2023/05/08 13:39:35;;;;;;;15.13;13.93;;;23.30;99.90;;;;;;4990587;28;20215;-71
2023/05/08 13:42:02;;;;;;;25.05;23.35;;;22.70;99.90;;;;;;4991783;28;20192;-72
2023/05/08 13:44:28;;;;;;;14.30;13.20;;;22.50;99.90;;;;;;4991833;28;20584;-72
2023/05/08 13:46:54;;;;;;;15.20;14.10;;;23.10;99.90;;;;;;4991171;28;20191;-71
2023/05/08 13:49:22;;;;;;;16.50;15.43;;;23.00;99.90;;;;;;4990606;28;20184;-71
2023/05/08 13:51:49;;;;;;;40.20;37.92;;;24.10;99.90;;;;;;4990673;28;20756;-72
2023/05/08 13:54:15;;;;;;;13.65;12.25;;;25.30;99.90;;;;;;4990266;28;20200;-72
2023/05/08 13:56:41;;;;;;;15.77;14.68;;;26.50;99.90;;;;;;4990470;28;20191;-72
2023/05/08 13:59:07;;;;;;;9.65;8.85;;;27.50;99.90;;;;;;4990292;28;20664;-72
2023/05/08 14:01:32;;;;;;;9.60;8.68;;;27.40;99.90;;;;;;4990202;28;20188;-72
2023/05/08 14:03:58;;;;;;;8.88;8.18;;;27.90;99.90;;;;;;4991130;28;20200;-72
2023/05/08 14:06:24;;;;;;;11.35;10.20;;;28.20;99.60;;;;;;4990621;28;20215;-70
2023/05/08 14:08:50;;;;;;;11.23;10.27;;;27.40;99.60;;;;;;4990960;28;20280;-72
2023/05/08 14:11:15;;;;;;;9.77;8.77;;;26.10;99.90;;;;;;4991577;28;20185;-72
2023/05/08 14:13:41;;;;;;;11.32;7.75;;;25.90;99.90;;;;;;4991748;28;20212;-71
2023/05/08 14:16:09;;;;;;;9.10;8.30;;;25.80;99.90;;;;;;4991513;28;20188;-71
2023/05/08 14:18:34;;;;;;;11.63;10.55;;;25.60;99.90;;;;;;4991221;28;20223;-71
2023/05/08 14:21:00;;;;;;;37.72;35.47;;;24.70;99.90;;;;;;4994357;28;20184;-71
2023/05/08 14:23:26;;;;;;;28.63;26.83;;;23.70;99.90;;;;;;4994404;28;20204;-71
2023/05/08 14:25:52;;;;;;;10.02;9.00;;;22.90;99.90;;;;;;4995581;28;20223;-71
2023/05/08 14:28:18;;;;;;;66.50;62.85;;;22.20;99.90;;;;;;4994818;28;20176;-73
2023/05/08 14:30:44;;;;;;;96.63;91.70;;;21.90;99.90;;;;;;4994519;28;20195;-72
2023/05/08 14:33:09;;;;;;;48.10;45.30;;;22.30;99.90;;;;;;4995466;28;20176;-70
2023/05/08 14:35:35;;;;;;;41.33;39.05;;;22.90;99.90;;;;;;4995462;28;20184;-70
2023/05/08 14:38:01;;;;;;;46.83;44.10;;;22.90;99.90;;;;;;4995124;28;20665;-70
2023/05/08 14:40:27;;;;;;;65.60;61.88;;;22.70;99.90;;;;;;4995096;28;20180;-70
2023/05/08 14:42:52;;;;;;;68.97;65.30;;;22.40;99.90;;;;;;4995347;28;20542;-71
2023/05/08 14:45:18;;;;;;;69.70;66.03;;;22.40;99.90;;;;;;5007244;28;20277;-71
2023/05/08 14:47:44;;;;;;;70.22;66.47;;;22.00;99.90;;;;;;5013997;28;20191;-71
2023/05/08 14:50:10;;;;;;;86.13;81.72;;;21.90;99.90;;;;;;5014912;28;20180;-71
2023/05/08 14:52:36;;;;;;;54.60;51.67;;;21.90;99.90;;;;;;5013093;28;20176;-71
2023/05/08 14:55:02;;;;;;;41.15;38.85;;;21.80;99.90;;;;;;5014258;28;20269;-71
2023/05/08 14:57:27;;;;;;;33.10;31.15;;;21.50;99.90;;;;;;5016071;28;20190;-71
2023/05/08 14:59:55;;;;;;;12.73;11.73;;;21.30;99.90;;;;;;5035981;28;20188;-71
2023/05/08 15:02:21;;;;;;;47.47;44.80;;;21.10;99.90;;;;;;5014503;28;20778;-72
2023/05/08 15:04:47;;;;;;;73.22;69.38;;;20.90;99.90;;;;;;5014692;28;20215;-71
2023/05/08 15:07:13;;;;;;;167.57;159.23;;;20.80;99.90;;;;;;5014506;28;20182;-71
2023/05/08 15:09:39;;;;;;;236.55;224.88;;;20.60;99.90;;;;;;5014564;28;20567;-71
2023/05/08 15:12:05;;;;;;;226.80;215.15;;;20.40;99.90;;;;;;5014472;28;20180;-71
2023/05/08 15:14:30;;;;;;;220.13;209.15;;;20.40;99.90;;;;;;5024174;23;20247;-77
2023/05/08 15:16:56;;;;;;;232.82;221.18;;;20.50;99.90;;;;;;4994240;28;20177;-75
2023/05/08 15:19:22;;;;;;;214.73;203.93;;;20.60;99.90;;;;;;4994446;28;20180;-76
2023/05/08 15:21:48;;;;;;;200.00;189.45;;;20.70;99.90;;;;;;4996497;28;20656;-78
2023/05/08 15:24:14;;;;;;;207.48;197.30;;;20.80;99.90;;;;;;4995556;28;20204;-77
2023/05/08 15:26:39;;;;;;;91.85;87.20;;;21.00;99.90;;;;;;5001526;28;20216;-77
2023/05/08 15:29:05;;;;;;;99.45;94.35;;;21.10;99.90;;;;;;4996170;28;20275;-77
2023/05/08 15:31:31;;;;;;;77.43;73.22;;;21.10;99.90;;;;;;4996329;28;20180;-78